createdAt,value
2018-12-03T00:02:18.342Z,99883.94
2018-12-03T00:06:27.812Z,99883.81
2018-12-03T00:10:40.294Z,99887.93
2018-12-03T00:14:51.215Z,99881.36
2018-12-03T00:19:01.861Z,99885.30
2018-12-03T00:23:12.337Z,99876.84
2018-12-03T00:27:24.187Z,99856.75
2018-12-03T00:31:40.679Z,99855.80
2018-12-03T00:35:54.286Z,99856.19
2018-12-03T00:40:11.933Z,99850.80
2018-12-03T00:44:25.798Z,99858.12
2018-12-03T00:48:45.108Z,99866.13
2018-12-03T00:53:00.263Z,99861.45
2018-12-03T00:57:18.564Z,99860.70
2018-12-03T01:01:39.701Z,99874.69
2018-12-03T01:05:55.249Z,99860.80
2018-12-03T01:10:06.229Z,99866.27
2018-12-03T01:14:19.107Z,99866.09
2018-12-03T01:18:33.894Z,99856.45
2018-12-03T01:22:48.336Z,99859.83
2018-12-03T01:27:03.911Z,99861.50
2018-12-03T01:31:20.497Z,99865.23
2018-12-03T01:35:32.189Z,99862.33
2018-12-03T01:39:45.862Z,99861.19
2018-12-03T01:43:59.236Z,99865.41
2018-12-03T01:48:12.124Z,99862.41
2018-12-03T01:52:24.904Z,99871.98
2018-12-03T01:56:34.381Z,99874.61
2018-12-03T02:00:45.371Z,99866.72
2018-12-03T02:04:56.181Z,99863.73
2018-12-03T02:09:08.683Z,99860.53
2018-12-03T02:13:21.289Z,99865.22
2018-12-03T02:17:30.333Z,99853.16
2018-12-03T02:21:37.475Z,99841.91
2018-12-03T02:25:47.559Z,99847.42
2018-12-03T02:29:58.415Z,99851.28
2018-12-03T02:34:19.146Z,99846.85
2018-12-03T02:38:35.492Z,99844.52
2018-12-03T02:42:52.815Z,99850.70
2018-12-03T02:47:08.141Z,99847.72
2018-12-03T02:51:19.926Z,99847.91
2018-12-03T02:55:29.170Z,99843.22
2018-12-03T02:59:40.936Z,99843.48
2018-12-03T03:03:51.836Z,99841.03
2018-12-03T03:08:01.901Z,99841.03
2018-12-03T03:12:15.749Z,99834.67
2018-12-03T03:16:24.964Z,99828.09
2018-12-03T03:20:38.779Z,99833.72
2018-12-03T03:24:49.744Z,99841.69
2018-12-03T03:29:02.246Z,99845.19
2018-12-03T03:33:14.652Z,99844.97
2018-12-03T03:37:30.658Z,99849.40
2018-12-03T03:41:41.581Z,99843.73
2018-12-03T03:45:50.776Z,99850.31
2018-12-03T03:50:01.637Z,99852.47
2018-12-03T03:54:11.850Z,99844.17
2018-12-03T03:58:26.114Z,99846.25
2018-12-03T04:02:38.696Z,99841.37
2018-12-03T04:06:50.307Z,99831.59
2018-12-03T04:11:01.477Z,99836.69
2018-12-03T04:15:14.565Z,99838.17
2018-12-03T04:19:29.322Z,99847.73
2018-12-03T04:23:44.484Z,99851.42
2018-12-03T04:27:57.022Z,99858.83
2018-12-03T04:32:06.669Z,99860.31
2018-12-03T04:36:16.529Z,99860.14
2018-12-03T04:40:34.473Z,99865.70
2018-12-03T04:44:43.558Z,99873.86
2018-12-03T04:48:50.005Z,99860.72
2018-12-03T04:53:02.700Z,99867.16
2018-12-03T04:57:12.708Z,99870.39
2018-12-03T05:01:24.009Z,99867.58
2018-12-03T05:05:35.781Z,99873.23
2018-12-03T05:09:47.492Z,99871.92
2018-12-03T05:14:04.855Z,99873.50
2018-12-03T05:18:16.055Z,99875.44
2018-12-03T05:22:30.447Z,99878.27
2018-12-03T05:26:44.996Z,99882.58
2018-12-03T05:31:07.590Z,99884.06
2018-12-03T05:35:27.228Z,99886.52
2018-12-03T05:39:40.891Z,99882.40
2018-12-03T05:43:54.376Z,99885.80
2018-12-03T05:48:12.202Z,99898.33
2018-12-03T05:52:31.588Z,99892.50
2018-12-03T05:56:45.254Z,99898.59
2018-12-03T06:00:56.220Z,99898.20
2018-12-03T06:05:08.526Z,99894.86
2018-12-03T06:09:23.849Z,99893.92
2018-12-03T06:13:36.211Z,99897.30
2018-12-03T06:17:46.057Z,99891.69
2018-12-03T06:22:04.245Z,99900.20
2018-12-03T06:26:18.977Z,99901.08
2018-12-03T06:30:31.718Z,99909.21
2018-12-03T06:34:42.536Z,99913.81
2018-12-03T06:38:54.256Z,99922.28
2018-12-03T06:43:10.631Z,99927.16
2018-12-03T06:47:25.351Z,99924.53
2018-12-03T06:51:50.512Z,99913.47
2018-12-03T06:56:02.347Z,99919.91
2018-12-03T07:00:24.901Z,99921.52
2018-12-03T07:04:36.643Z,99927.70
2018-12-03T07:08:52.815Z,99931.19
2018-12-03T07:13:16.219Z,99928.92
2018-12-03T07:17:25.480Z,99931.16
2018-12-03T07:21:38.667Z,99922.26
2018-12-03T07:25:46.336Z,99925.64
2018-12-03T07:30:02.886Z,99927.23
2018-12-03T07:34:17.325Z,99927.88
2018-12-03T07:38:29.931Z,99935.94
2018-12-03T07:42:43.498Z,99944.02
2018-12-03T07:46:56.142Z,99941.39
2018-12-03T07:51:09.603Z,99941.39
2018-12-03T07:55:28.401Z,99945.25
2018-12-03T07:59:47.340Z,99954.55
2018-12-03T08:03:57.129Z,99953.98
2018-12-03T08:08:09.705Z,99965.97
2018-12-03T08:12:21.418Z,99962.89
2018-12-03T08:16:32.179Z,99974.99
2018-12-03T08:20:51.563Z,99970.02
2018-12-03T08:25:04.746Z,99972.36
2018-12-03T08:29:16.360Z,99967.86
2018-12-03T08:33:30.727Z,99974.07
2018-12-03T08:37:49.582Z,99975.08
2018-12-03T08:42:06.722Z,99975.94
2018-12-03T08:46:13.659Z,99970.69
2018-12-03T08:50:29.352Z,99973.88
2018-12-03T08:54:38.534Z,99976.86
2018-12-03T08:58:51.447Z,99980.25
2018-12-03T09:03:22.724Z,99980.44
2018-12-03T09:07:38.761Z,99985.13
2018-12-03T09:11:54.726Z,99990.84
2018-12-03T09:16:06.615Z,99994.53
2018-12-03T09:20:20.949Z,99995.68
2018-12-03T09:24:32.841Z,100000.73
2018-12-03T09:28:47.476Z,100002.63
2018-12-03T09:33:00.962Z,99999.42
2018-12-03T09:37:14.523Z,100003.07
2018-12-03T09:41:27.113Z,100008.88
2018-12-03T09:45:38.694Z,100004.33
2018-12-03T09:49:52.133Z,99998.12
2018-12-03T09:54:03.684Z,99995.89
2018-12-03T09:58:44.075Z,99988.25
2018-12-03T10:02:54.123Z,99986.11
2018-12-03T10:07:10.439Z,99979.17
2018-12-03T10:11:26.707Z,99983.47
2018-12-03T10:15:42.086Z,99981.57
2018-12-03T10:19:58.436Z,99974.23
2018-12-03T10:24:16.046Z,99970.94
2018-12-03T10:28:29.667Z,99964.73
2018-12-03T10:32:39.431Z,99960.36
2018-12-03T10:37:00.650Z,99958.62
2018-12-03T10:41:33.896Z,99957.37
2018-12-03T10:45:45.670Z,99954.81
2018-12-03T10:50:00.114Z,99947.83
2018-12-03T10:54:16.035Z,99939.77
2018-12-03T10:58:32.426Z,99945.32
2018-12-03T11:02:58.142Z,99945.69
2018-12-03T11:07:05.505Z,99941.25
2018-12-03T11:11:20.111Z,99938.45
2018-12-03T11:15:27.371Z,99930.42
2018-12-03T11:19:44.516Z,99932.33
2018-12-03T11:23:55.787Z,99924.67
2018-12-03T11:28:09.098Z,99922.84
2018-12-03T11:32:23.836Z,99917.58
2018-12-03T11:37:00.210Z,99907.97
2018-12-03T11:41:14.977Z,99900.18
2018-12-03T11:45:28.575Z,99896.15
2018-12-03T11:49:42.886Z,99889.13
2018-12-03T11:53:56.592Z,99882.00
2018-12-03T11:58:03.534Z,99894.53
2018-12-03T12:02:18.947Z,99881.66
2018-12-03T12:06:33.925Z,99876.11
2018-12-03T12:10:50.961Z,99879.28
2018-12-03T12:14:59.959Z,99878.13
2018-12-03T12:19:09.122Z,99879.87
2018-12-03T12:23:25.283Z,99886.91
2018-12-03T12:27:31.638Z,99875.56
2018-12-03T12:31:44.745Z,99873.38
2018-12-03T12:35:58.125Z,99869.82
2018-12-03T12:40:15.060Z,99868.90
2018-12-03T12:44:26.762Z,99853.42
2018-12-03T12:48:41.319Z,99849.75
2018-12-03T12:52:57.350Z,99845.75
2018-12-03T12:57:08.093Z,99841.51
2018-12-03T13:01:18.521Z,99842.55
2018-12-03T13:05:29.204Z,99823.11
2018-12-03T13:09:47.316Z,99825.73
2018-12-03T13:14:00.974Z,99826.39
2018-12-03T13:18:16.196Z,99818.41
2018-12-03T13:22:31.403Z,99804.66
2018-12-03T13:26:51.148Z,99803.42
2018-12-03T13:31:02.051Z,99797.86
2018-12-03T13:35:14.784Z,99791.11
2018-12-03T13:39:33.751Z,99796.47
2018-12-03T13:43:42.222Z,99789.30
2018-12-03T13:47:57.745Z,99786.92
2018-12-03T13:52:28.265Z,99784.60
2018-12-03T13:56:39.107Z,99790.73
2018-12-03T14:00:53.648Z,99792.33
2018-12-03T14:05:06.471Z,99804.17
2018-12-03T14:09:52.651Z,99810.22
2018-12-03T14:14:42.410Z,99799.80
2018-12-03T14:18:58.920Z,99791.23
2018-12-03T14:23:11.927Z,99772.83
2018-12-03T14:27:32.039Z,99778.32
2018-12-03T14:31:42.928Z,99776.08
2018-12-03T14:35:58.217Z,99763.81
2018-12-03T14:40:05.383Z,99766.46
2018-12-03T14:44:23.461Z,99775.27
2018-12-03T14:48:41.220Z,99775.27
2018-12-03T14:52:58.279Z,99787.31
2018-12-03T14:57:09.838Z,99781.88
2018-12-03T15:01:22.397Z,99782.45
2018-12-03T15:05:39.811Z,99778.16
2018-12-03T15:09:50.551Z,99780.03
2018-12-03T15:14:03.051Z,99778.03
2018-12-03T15:18:14.762Z,99785.55
2018-12-03T15:22:28.580Z,99789.02
2018-12-03T15:26:46.213Z,99780.78
2018-12-03T15:30:58.063Z,99782.45
2018-12-03T15:35:05.579Z,99774.12
2018-12-03T15:39:23.032Z,99781.13
2018-12-03T15:43:42.424Z,99772.50
2018-12-03T15:47:55.545Z,99774.56
2018-12-03T15:52:09.029Z,99774.92
2018-12-03T15:56:27.908Z,99771.76
2018-12-03T16:00:46.730Z,99766.86
2018-12-03T16:05:04.819Z,99761.61
2018-12-03T16:09:19.848Z,99765.94
2018-12-03T16:13:28.333Z,99769.66
2018-12-03T16:17:38.147Z,99770.05
2018-12-03T16:21:50.130Z,99770.97
2018-12-03T16:25:59.994Z,99771.54
2018-12-03T16:30:27.943Z,99774.92
2018-12-03T16:34:39.726Z,99777.55
2018-12-03T16:38:55.210Z,99776.62
2018-12-03T16:43:10.533Z,99776.71
2018-12-03T16:47:24.067Z,99775.30
2018-12-03T16:51:38.480Z,99777.37
2018-12-03T16:55:52.776Z,99772.98
2018-12-03T17:00:05.488Z,99776.80
2018-12-03T17:04:17.292Z,99765.55
2018-12-03T17:08:33.956Z,99765.55
2018-12-03T17:12:41.096Z,99763.88
2018-12-03T17:16:56.421Z,99783.11
2018-12-03T17:21:44.332Z,99782.80
2018-12-03T17:26:02.410Z,99781.36
2018-12-03T17:30:16.044Z,99794.23
2018-12-03T17:34:29.546Z,99804.66
2018-12-03T17:38:45.734Z,99804.75
2018-12-03T17:42:58.634Z,99812.27
2018-12-03T17:47:12.167Z,99821.17
2018-12-03T17:51:28.334Z,99832.91
2018-12-03T17:55:45.690Z,99835.92
2018-12-03T18:00:04.711Z,99833.09
2018-12-03T18:04:19.824Z,99834.49
2018-12-03T18:08:33.685Z,99844.80
2018-12-03T18:12:43.850Z,99855.61
2018-12-03T18:16:56.647Z,99853.34
2018-12-03T18:21:06.629Z,99861.41
2018-12-03T18:25:19.205Z,99865.16
2018-12-03T18:29:33.899Z,99874.37
2018-12-03T18:33:41.282Z,99873.50
2018-12-03T18:37:52.999Z,99887.52
2018-12-03T18:42:06.502Z,99883.77
2018-12-03T18:46:23.689Z,99883.23
2018-12-03T18:50:37.729Z,99894.87
2018-12-03T18:54:48.721Z,99896.58
2018-12-03T18:59:06.131Z,99900.13
2018-12-03T19:03:19.784Z,99901.45
2018-12-03T19:07:33.249Z,99916.08
2018-12-03T19:11:43.974Z,99911.95
2018-12-03T19:15:57.420Z,99924.34
2018-12-03T19:20:08.169Z,99933.25
2018-12-03T19:24:17.954Z,99935.23
2018-12-03T19:28:31.751Z,99936.55
2018-12-03T19:32:44.250Z,99948.73
2018-12-03T19:37:17.940Z,99947.69
2018-12-03T19:41:28.675Z,99958.31
2018-12-03T19:45:47.523Z,99958.88
2018-12-03T19:49:57.444Z,99970.86
2018-12-03T19:54:09.385Z,99971.81
2018-12-03T19:58:32.108Z,99972.73
2018-12-03T20:02:46.467Z,99968.52
2018-12-03T20:07:01.191Z,99979.85
2018-12-03T20:11:16.721Z,99993.94
2018-12-03T20:15:32.876Z,99995.61
2018-12-03T20:19:43.875Z,100014.75
2018-12-03T20:24:08.339Z,100020.75
2018-12-03T20:28:24.825Z,100031.81
2018-12-03T20:32:51.717Z,100045.90
2018-12-03T20:37:24.431Z,100052.91
2018-12-03T20:41:44.784Z,100062.77
2018-12-03T20:46:20.333Z,100087.31
2018-12-03T20:51:01.421Z,100103.91
2018-12-03T20:55:34.029Z,100115.78
2018-12-03T20:59:47.690Z,100128.31
2018-12-03T21:04:11.490Z,100149.98
2018-12-03T21:08:23.111Z,100159.36
2018-12-03T21:12:33.098Z,100184.41
2018-12-03T21:16:48.615Z,100202.06
2018-12-03T21:21:02.978Z,100233.44
2018-12-03T21:25:15.606Z,100254.55
2018-12-03T21:29:24.542Z,100273.12
2018-12-03T21:33:37.202Z,100301.77
2018-12-03T21:37:53.571Z,100325.48
2018-12-03T21:42:13.966Z,100348.61
2018-12-03T21:46:26.601Z,100370.88
2018-12-03T21:50:37.378Z,100385.39
2018-12-03T21:54:50.007Z,100403.34
2018-12-03T21:58:58.471Z,100410.61
2018-12-03T22:03:05.843Z,100423.74
2018-12-03T22:07:23.727Z,100439.53
2018-12-03T22:11:33.596Z,100453.45
2018-12-03T22:16:49.816Z,100465.62
2018-12-03T22:21:04.436Z,100487.20
2018-12-03T22:25:24.618Z,100505.00
2018-12-03T22:29:41.514Z,100516.39
2018-12-03T22:33:55.090Z,100530.52
2018-12-03T22:38:05.129Z,100542.95
2018-12-03T22:42:18.125Z,100552.28
2018-12-03T22:46:29.742Z,100555.77
2018-12-03T22:50:41.523Z,100571.74
2018-12-03T22:54:53.745Z,100576.70
2018-12-03T22:59:02.806Z,100593.27
2018-12-03T23:03:13.441Z,100608.30
2018-12-03T23:07:26.935Z,100630.16
2018-12-03T23:11:42.866Z,100638.10
2018-12-03T23:15:53.713Z,100648.77
2018-12-03T23:20:11.536Z,100656.75
2018-12-03T23:24:26.949Z,100673.23
2018-12-03T23:28:35.364Z,100680.30
2018-12-03T23:32:50.726Z,100692.58
2018-12-03T23:37:03.236Z,100707.44
2018-12-03T23:41:13.338Z,100718.06
2018-12-03T23:45:27.587Z,100733.86
2018-12-03T23:49:44.902Z,100736.48
2018-12-03T23:53:59.757Z,100747.91
2018-12-03T23:58:15.114Z,100758.92
